createdAt,value
2018-08-22T00:00:09.383Z,20.20
2018-08-22T00:02:37.704Z,20.20
2018-08-22T00:05:06.032Z,20.30
2018-08-22T00:07:34.379Z,20.30
2018-08-22T00:10:02.691Z,20.30
2018-08-22T00:12:30.991Z,20.40
2018-08-22T00:14:59.317Z,20.30
2018-08-22T00:17:27.667Z,20.20
2018-08-22T00:19:55.991Z,20.10
2018-08-22T00:22:24.363Z,20.10
2018-08-22T00:24:52.634Z,20.20
2018-08-22T00:27:20.988Z,20.10
2018-08-22T00:29:49.341Z,20.10
2018-08-22T00:32:17.749Z,20.00
2018-08-22T00:34:46.088Z,19.90
2018-08-22T00:37:14.429Z,19.90
2018-08-22T00:39:43.099Z,19.50
2018-08-22T00:42:11.451Z,19.10
2018-08-22T00:44:39.833Z,18.80
2018-08-22T00:47:08.139Z,18.60
2018-08-22T00:49:36.460Z,18.50
2018-08-22T00:52:04.779Z,18.60
2018-08-22T00:54:33.096Z,18.60
2018-08-22T00:57:01.428Z,18.60
2018-08-22T00:59:29.773Z,18.70
2018-08-22T01:01:58.131Z,18.70
2018-08-22T01:04:26.488Z,18.80
2018-08-22T01:06:54.820Z,18.70
2018-08-22T01:09:23.232Z,18.70
2018-08-22T01:11:51.603Z,18.70
2018-08-22T01:14:19.922Z,18.70
2018-08-22T01:16:48.252Z,18.70
2018-08-22T01:19:16.680Z,18.70
2018-08-22T01:21:45.013Z,18.90
2018-08-22T01:24:13.349Z,19.10
2018-08-22T01:26:41.692Z,19.10
2018-08-22T01:29:10.063Z,18.80
2018-08-22T01:31:38.380Z,18.80
2018-08-22T01:34:06.912Z,18.90
2018-08-22T01:36:35.224Z,19.00
2018-08-22T01:39:04.206Z,18.90
2018-08-22T01:41:32.556Z,18.80
2018-08-22T01:44:00.868Z,18.70
2018-08-22T01:46:29.161Z,18.60
2018-08-22T01:48:57.464Z,18.50
2018-08-22T01:51:25.783Z,18.60
2018-08-22T01:53:54.123Z,18.70
2018-08-22T01:56:22.436Z,18.60
2018-08-22T01:58:51.749Z,18.60
2018-08-22T02:01:20.036Z,18.60
2018-08-22T02:03:48.339Z,18.60
2018-08-22T02:06:16.670Z,18.60
2018-08-22T02:08:44.977Z,18.50
2018-08-22T02:11:13.948Z,18.50
2018-08-22T02:13:42.354Z,18.50
2018-08-22T02:16:10.628Z,18.60
2018-08-22T02:18:38.979Z,18.40
2018-08-22T02:21:07.288Z,18.30
2018-08-22T02:23:35.631Z,18.40
2018-08-22T02:26:03.992Z,18.60
2018-08-22T02:28:32.322Z,18.50
2018-08-22T02:31:00.685Z,18.30
2018-08-22T02:33:29.004Z,18.20
2018-08-22T02:35:57.360Z,18.20
2018-08-22T02:38:26.225Z,18.20
2018-08-22T02:40:56.664Z,18.30
2018-08-22T02:43:25.336Z,18.20
2018-08-22T02:45:53.642Z,18.10
2018-08-22T02:48:21.956Z,18.10
2018-08-22T02:50:50.264Z,18.00
2018-08-22T02:53:18.571Z,17.90
2018-08-22T02:55:46.871Z,17.90
2018-08-22T02:58:15.200Z,18.00
2018-08-22T03:00:43.491Z,17.90
2018-08-22T03:03:11.824Z,17.90
2018-08-22T03:05:40.156Z,17.90
2018-08-22T03:08:08.471Z,18.00
2018-08-22T03:10:36.824Z,18.10
2018-08-22T03:13:05.247Z,18.10
2018-08-22T03:15:33.747Z,18.10
2018-08-22T03:18:02.091Z,18.00
2018-08-22T03:20:30.411Z,17.90
2018-08-22T03:22:58.716Z,17.80
2018-08-22T03:25:27.715Z,17.70
2018-08-22T03:27:56.033Z,17.60
2018-08-22T03:30:24.339Z,17.40
2018-08-22T03:32:52.708Z,17.30
2018-08-22T03:35:21.014Z,17.30
2018-08-22T03:37:49.379Z,17.30
2018-08-22T03:40:18.564Z,17.50
2018-08-22T03:42:46.865Z,17.50
2018-08-22T03:45:15.179Z,17.60
2018-08-22T03:47:43.487Z,17.50
2018-08-22T03:50:11.813Z,17.40
2018-08-22T03:52:40.117Z,17.30
2018-08-22T03:55:08.603Z,17.30
2018-08-22T03:57:37.159Z,17.20
2018-08-22T04:00:05.648Z,17.30
2018-08-22T04:02:33.976Z,17.50
2018-08-22T04:05:02.283Z,17.50
2018-08-22T04:07:30.600Z,17.40
2018-08-22T04:09:58.931Z,17.40
2018-08-22T04:12:27.264Z,17.50
2018-08-22T04:14:55.568Z,17.50
2018-08-22T04:17:29.136Z,17.40
2018-08-22T04:19:57.463Z,17.30
2018-08-22T04:22:25.763Z,17.10
2018-08-22T04:24:54.256Z,16.90
2018-08-22T04:27:22.595Z,16.90
2018-08-22T04:29:50.907Z,16.90
2018-08-22T04:32:19.216Z,16.90
2018-08-22T04:34:47.565Z,17.10
2018-08-22T04:37:15.875Z,17.20
2018-08-22T04:39:44.217Z,17.20
2018-08-22T04:42:12.948Z,17.20
2018-08-22T04:44:41.447Z,17.20
2018-08-22T04:47:09.868Z,16.70
2018-08-22T04:49:38.220Z,16.50
2018-08-22T04:52:06.556Z,16.50
2018-08-22T04:54:34.889Z,16.50
2018-08-22T04:57:03.231Z,16.50
2018-08-22T04:59:31.607Z,16.60
2018-08-22T05:01:59.908Z,16.70
2018-08-22T05:04:28.248Z,16.70
2018-08-22T05:06:56.569Z,16.80
2018-08-22T05:09:24.892Z,17.00
2018-08-22T05:11:53.269Z,17.00
2018-08-22T05:14:21.711Z,17.20
2018-08-22T05:16:50.045Z,17.20
2018-08-22T05:19:18.500Z,17.30
2018-08-22T05:21:46.844Z,17.30
2018-08-22T05:24:15.220Z,17.40
2018-08-22T05:26:43.553Z,17.50
2018-08-22T05:29:11.872Z,17.60
2018-08-22T05:31:40.268Z,17.60
2018-08-22T05:34:08.628Z,17.60
2018-08-22T05:36:36.931Z,17.70
2018-08-22T05:39:08.466Z,17.70
2018-08-22T05:41:36.787Z,17.90
2018-08-22T05:44:06.920Z,18.00
2018-08-22T05:46:35.293Z,18.10
2018-08-22T05:49:03.645Z,18.20
2018-08-22T05:51:32.196Z,18.40
2018-08-22T05:54:00.840Z,18.40
2018-08-22T05:56:29.235Z,18.60
2018-08-22T05:58:57.561Z,18.70
2018-08-22T06:01:25.896Z,18.80
2018-08-22T06:03:54.224Z,18.80
2018-08-22T06:06:22.564Z,18.90
2018-08-22T06:08:50.874Z,19.10
2018-08-22T06:11:19.200Z,19.20
2018-08-22T06:13:47.892Z,19.20
2018-08-22T06:16:16.279Z,19.30
2018-08-22T06:18:44.619Z,19.40
2018-08-22T06:21:12.960Z,19.50
2018-08-22T06:23:41.276Z,19.60
2018-08-22T06:26:09.597Z,19.60
2018-08-22T06:28:42.715Z,19.70
2018-08-22T06:31:12.694Z,19.80
2018-08-22T06:33:45.747Z,19.80
2018-08-22T06:36:14.080Z,19.80
2018-08-22T06:38:42.951Z,19.90
2018-08-22T06:41:11.442Z,20.00
2018-08-22T06:43:39.816Z,20.10
2018-08-22T06:46:08.945Z,20.20
2018-08-22T06:48:37.271Z,20.40
2018-08-22T06:51:07.048Z,20.50
2018-08-22T06:53:37.010Z,20.50
2018-08-22T06:56:06.398Z,20.60
2018-08-22T06:58:40.344Z,20.70
2018-08-22T07:01:20.657Z,20.80
2018-08-22T07:03:49.160Z,20.90
2018-08-22T07:06:17.460Z,20.90
2018-08-22T07:08:45.795Z,21.00
2018-08-22T07:11:14.726Z,21.10
2018-08-22T07:13:43.640Z,21.20
2018-08-22T07:16:11.960Z,21.20
2018-08-22T07:18:40.287Z,21.40
2018-08-22T07:21:08.676Z,21.40
2018-08-22T07:23:37.492Z,21.40
2018-08-22T07:26:06.427Z,21.50
2018-08-22T07:28:43.464Z,21.50
2018-08-22T07:31:11.984Z,21.60
2018-08-22T07:33:40.308Z,21.60
2018-08-22T07:36:08.607Z,21.80
2018-08-22T07:38:36.999Z,21.90
2018-08-22T07:41:05.355Z,21.80
2018-08-22T07:43:33.668Z,21.90
2018-08-22T07:46:01.981Z,22.00
2018-08-22T07:48:30.436Z,22.00
2018-08-22T07:50:58.920Z,22.10
2018-08-22T07:53:27.280Z,22.10
2018-08-22T07:55:55.616Z,22.20
2018-08-22T07:58:23.982Z,22.30
2018-08-22T08:00:52.497Z,22.40
2018-08-22T08:03:21.125Z,22.40
2018-08-22T08:05:49.549Z,22.50
2018-08-22T08:08:17.980Z,22.50
2018-08-22T08:10:46.874Z,22.60
2018-08-22T08:13:20.602Z,22.70
2018-08-22T08:15:48.956Z,22.70
2018-08-22T08:18:17.353Z,22.90
2018-08-22T08:20:45.689Z,23.20
2018-08-22T08:23:13.984Z,23.20
2018-08-22T08:25:42.360Z,23.30
2018-08-22T08:28:10.684Z,23.30
2018-08-22T08:30:39.070Z,23.40
2018-08-22T08:33:07.427Z,23.60
2018-08-22T08:35:35.822Z,23.70
2018-08-22T08:38:04.305Z,23.80
2018-08-22T08:40:32.618Z,23.90
2018-08-22T08:43:01.584Z,23.90
2018-08-22T08:45:29.948Z,24.10
2018-08-22T08:47:59.053Z,24.20
2018-08-22T08:50:27.389Z,24.20
2018-08-22T08:52:55.737Z,24.20
2018-08-22T08:55:25.317Z,24.20
2018-08-22T08:57:59.088Z,24.40
2018-08-22T09:00:28.139Z,24.40
2018-08-22T09:02:56.436Z,24.40
2018-08-22T09:05:28.180Z,24.60
2018-08-22T09:07:56.562Z,24.70
2018-08-22T09:10:24.943Z,24.70
2018-08-22T09:12:53.272Z,24.70
2018-08-22T09:15:21.664Z,24.70
2018-08-22T09:17:52.800Z,24.60
2018-08-22T09:20:21.115Z,24.80
2018-08-22T09:22:49.433Z,24.80
2018-08-22T09:25:17.847Z,24.90
2018-08-22T09:27:46.174Z,24.80
2018-08-22T09:30:15.544Z,24.80
2018-08-22T09:32:43.927Z,24.80
2018-08-22T09:35:12.260Z,25.00
2018-08-22T09:37:40.552Z,25.00
2018-08-22T09:40:09.043Z,25.10
2018-08-22T09:42:37.408Z,25.10
2018-08-22T09:45:05.862Z,25.40
2018-08-22T09:47:34.554Z,25.50
2018-08-22T09:50:02.965Z,25.50
2018-08-22T09:52:31.319Z,25.40
2018-08-22T09:55:01.994Z,25.70
2018-08-22T09:57:31.003Z,25.70
2018-08-22T09:59:59.379Z,25.80
2018-08-22T10:02:27.876Z,25.70
2018-08-22T10:04:56.755Z,25.70
2018-08-22T10:07:25.110Z,25.70
2018-08-22T10:09:53.422Z,25.60
2018-08-22T10:12:37.616Z,25.80
2018-08-22T10:15:06.033Z,25.90
2018-08-22T10:17:37.506Z,26.10
2018-08-22T10:20:05.936Z,26.10
2018-08-22T10:22:34.241Z,26.20
2018-08-22T10:25:02.586Z,26.60
2018-08-22T10:27:30.953Z,27.00
2018-08-22T10:29:59.272Z,27.00
2018-08-22T10:32:27.595Z,27.10
2018-08-22T10:34:55.928Z,27.10
2018-08-22T10:37:24.252Z,27.30
2018-08-22T10:39:52.576Z,27.40
2018-08-22T10:42:20.887Z,27.70
2018-08-22T10:44:49.288Z,27.90
2018-08-22T10:47:17.663Z,27.70
2018-08-22T10:49:46.013Z,27.70
2018-08-22T10:52:14.311Z,28.50
2018-08-22T10:54:42.667Z,28.70
2018-08-22T10:57:10.974Z,28.80
2018-08-22T10:59:39.303Z,28.30
2018-08-22T11:02:07.610Z,28.20
2018-08-22T11:04:35.928Z,28.40
2018-08-22T11:07:04.295Z,28.90
2018-08-22T11:09:33.396Z,29.10
2018-08-22T11:12:01.816Z,28.80
2018-08-22T11:14:31.291Z,29.40
2018-08-22T11:16:59.692Z,29.70
2018-08-22T11:19:28.879Z,29.50
2018-08-22T11:22:08.415Z,29.40
2018-08-22T11:24:47.871Z,29.30
2018-08-22T11:27:27.439Z,29.70
2018-08-22T11:30:06.917Z,29.70
2018-08-22T11:32:46.396Z,29.70
2018-08-22T11:35:13.660Z,30.10
2018-08-22T11:37:41.974Z,29.60
2018-08-22T11:40:10.314Z,29.40
2018-08-22T11:42:45.255Z,29.50
2018-08-22T11:45:13.603Z,29.70
2018-08-22T11:47:42.812Z,29.40
2018-08-22T11:50:11.201Z,29.30
2018-08-22T11:52:39.778Z,30.00
2018-08-22T11:55:08.072Z,29.90
2018-08-22T11:57:36.447Z,29.60
2018-08-22T12:00:05.847Z,29.70
2018-08-22T12:02:34.182Z,29.90
2018-08-22T12:05:03.083Z,30.20
2018-08-22T12:07:31.407Z,30.40
2018-08-22T12:09:59.748Z,30.60
2018-08-22T12:12:28.069Z,30.90
2018-08-22T12:14:56.416Z,31.60
2018-08-22T12:17:24.764Z,30.90
2018-08-22T12:19:53.114Z,30.30
2018-08-22T12:22:21.515Z,30.50
2018-08-22T12:24:49.896Z,31.80
2018-08-22T12:27:18.203Z,31.90
2018-08-22T12:29:46.562Z,31.10
2018-08-22T12:32:14.884Z,30.70
2018-08-22T12:34:43.202Z,30.80
2018-08-22T12:37:11.591Z,31.50
2018-08-22T12:39:39.913Z,31.10
2018-08-22T12:42:08.233Z,31.80
2018-08-22T12:44:36.566Z,32.00
2018-08-22T12:47:04.856Z,32.00
2018-08-22T12:49:33.948Z,32.80
2018-08-22T12:52:02.248Z,33.70
2018-08-22T12:54:30.596Z,33.10
2018-08-22T12:56:59.646Z,32.80
2018-08-22T12:59:27.975Z,32.20
2018-08-22T13:01:56.329Z,32.50
2018-08-22T13:04:24.680Z,32.20
2018-08-22T13:06:53.025Z,32.00
2018-08-22T13:09:21.336Z,31.90
2018-08-22T13:11:49.724Z,31.90
2018-08-22T13:14:18.080Z,31.50
2018-08-22T13:16:46.472Z,31.50
2018-08-22T13:19:14.803Z,31.30
2018-08-22T13:21:43.140Z,31.60
2018-08-22T13:24:11.459Z,31.80
2018-08-22T13:26:40.370Z,31.70
2018-08-22T13:29:08.709Z,31.20
2018-08-22T13:31:37.644Z,31.60
2018-08-22T13:34:06.107Z,32.10
2018-08-22T13:36:34.440Z,32.00
2018-08-22T13:39:02.825Z,32.00
2018-08-22T13:41:31.616Z,32.20
2018-08-22T13:43:59.920Z,32.00
2018-08-22T13:46:29.224Z,32.40
2018-08-22T13:48:57.545Z,32.00
2018-08-22T13:51:25.876Z,31.80
2018-08-22T13:53:54.168Z,31.80
2018-08-22T13:56:22.549Z,32.40
2018-08-22T13:58:50.868Z,32.50
2018-08-22T14:01:19.230Z,32.30
2018-08-22T14:03:47.500Z,32.70
2018-08-22T14:06:15.807Z,32.30
2018-08-22T14:08:44.212Z,31.90
2018-08-22T14:11:12.550Z,32.10
2018-08-22T14:13:40.876Z,32.30
2018-08-22T14:16:09.291Z,32.10
2018-08-22T14:18:37.564Z,31.90
2018-08-22T14:21:05.900Z,31.90
2018-08-22T14:23:34.211Z,32.20
2018-08-22T14:26:02.617Z,33.00
2018-08-22T14:28:31.560Z,32.80
2018-08-22T14:31:00.624Z,32.70
2018-08-22T14:33:28.956Z,32.70
2018-08-22T14:35:57.277Z,33.50
2018-08-22T14:38:25.590Z,33.30
2018-08-22T14:40:53.938Z,33.30
2018-08-22T14:43:22.256Z,33.20
2018-08-22T14:45:50.589Z,33.50
2018-08-22T14:48:18.924Z,32.70
2018-08-22T14:50:47.256Z,32.80
2018-08-22T14:53:15.610Z,32.70
2018-08-22T14:55:44.029Z,32.50
2018-08-22T14:58:12.335Z,32.70
2018-08-22T15:00:40.724Z,32.70
2018-08-22T15:03:10.112Z,33.10
2018-08-22T15:05:38.192Z,32.40
2018-08-22T15:08:06.557Z,32.40
2018-08-22T15:10:34.873Z,32.30
2018-08-22T15:13:07.066Z,32.30
2018-08-22T15:15:35.498Z,32.90
2018-08-22T15:18:03.852Z,32.90
2018-08-22T15:20:32.219Z,32.70
2018-08-22T15:23:00.519Z,33.00
2018-08-22T15:25:28.828Z,33.00
2018-08-22T15:27:57.218Z,33.30
2018-08-22T15:30:25.529Z,33.00
2018-08-22T15:32:53.858Z,32.80
2018-08-22T15:35:22.928Z,32.30
2018-08-22T15:37:51.320Z,32.50
2018-08-22T15:40:20.184Z,32.30
2018-08-22T15:42:48.504Z,32.20
2018-08-22T15:45:16.935Z,32.20
2018-08-22T15:47:45.349Z,32.10
2018-08-22T15:50:13.631Z,32.20
2018-08-22T15:52:41.944Z,32.20
2018-08-22T15:55:11.722Z,31.80
2018-08-22T15:57:52.672Z,31.30
2018-08-22T16:00:55.524Z,31.00
2018-08-22T16:03:25.056Z,30.70
2018-08-22T16:05:54.395Z,30.40
2018-08-22T16:08:26.869Z,30.30
2018-08-22T16:10:55.884Z,30.30
2018-08-22T16:13:31.272Z,30.50
2018-08-22T16:16:01.872Z,30.40
2018-08-22T16:18:33.441Z,30.10
2018-08-22T16:21:03.662Z,30.20
2018-08-22T16:23:33.504Z,30.30
2018-08-22T16:26:02.708Z,30.40
2018-08-22T16:28:42.081Z,30.60
2018-08-22T16:31:10.450Z,30.70
2018-08-22T16:33:39.349Z,30.80
2018-08-22T16:36:08.248Z,30.30
2018-08-22T16:38:36.583Z,30.50
2018-08-22T16:41:04.889Z,30.50
2018-08-22T16:43:42.275Z,30.50
2018-08-22T16:46:12.116Z,30.50
2018-08-22T16:48:41.163Z,30.70
2018-08-22T16:51:09.517Z,30.30
2018-08-22T16:53:37.840Z,30.00
2018-08-22T16:56:06.770Z,29.80
2018-08-22T16:58:35.940Z,29.50
2018-08-22T17:01:04.299Z,29.50
2018-08-22T17:03:32.699Z,29.40
2018-08-22T17:06:07.556Z,29.20
2018-08-22T17:08:35.906Z,29.20
2018-08-22T17:11:05.424Z,29.30
2018-08-22T17:13:43.901Z,29.20
2018-08-22T17:16:13.711Z,29.20
2018-08-22T17:18:42.027Z,29.20
2018-08-22T17:21:10.771Z,29.10
2018-08-22T17:23:39.299Z,28.90
2018-08-22T17:26:19.169Z,28.70
2018-08-22T17:28:51.648Z,28.70
2018-08-22T17:31:20.749Z,28.70
2018-08-22T17:33:50.439Z,28.50
2018-08-22T17:36:18.893Z,28.40
2018-08-22T17:38:48.571Z,28.30
2018-08-22T17:41:17.961Z,28.10
2018-08-22T17:43:59.449Z,27.90
2018-08-22T17:46:29.296Z,27.90
2018-08-22T17:48:57.973Z,27.60
2018-08-22T17:51:26.569Z,27.40
2018-08-22T17:53:55.008Z,27.30
2018-08-22T17:56:24.438Z,27.10
2018-08-22T17:58:53.947Z,26.90
2018-08-22T18:01:22.863Z,26.90
2018-08-22T18:03:51.653Z,26.70
2018-08-22T18:06:20.315Z,26.60
2018-08-22T18:08:49.038Z,26.40
2018-08-22T18:11:17.636Z,26.30
2018-08-22T18:13:46.058Z,26.30
2018-08-22T18:16:14.340Z,26.30
2018-08-22T18:18:43.601Z,26.20
2018-08-22T18:21:11.920Z,26.10
2018-08-22T18:23:46.261Z,26.00
2018-08-22T18:26:16.124Z,25.90
2018-08-22T18:28:45.204Z,25.90
2018-08-22T18:31:20.000Z,25.80
2018-08-22T18:34:01.911Z,25.70
2018-08-22T18:36:43.888Z,25.60
2018-08-22T18:39:16.563Z,25.50
2018-08-22T18:41:45.444Z,25.30
2018-08-22T18:44:15.572Z,25.30
2018-08-22T18:46:44.413Z,25.30
2018-08-22T18:49:23.087Z,25.40
2018-08-22T18:51:55.244Z,25.40
2018-08-22T18:54:23.648Z,25.50
2018-08-22T18:56:52.464Z,25.30
2018-08-22T18:59:24.924Z,25.20
2018-08-22T19:02:04.911Z,25.20
2018-08-22T19:04:33.276Z,25.10
2018-08-22T19:07:01.896Z,24.90
2018-08-22T19:09:30.481Z,24.90
2018-08-22T19:11:58.988Z,24.80
2018-08-22T19:14:38.502Z,24.70
2018-08-22T19:17:06.865Z,24.60
2018-08-22T19:19:43.380Z,24.40
2018-08-22T19:22:12.772Z,24.20
2018-08-22T19:24:42.695Z,24.00
2018-08-22T19:27:11.008Z,23.80
2018-08-22T19:29:45.461Z,23.70
2018-08-22T19:32:20.093Z,23.70
2018-08-22T19:34:57.117Z,23.50
2018-08-22T19:37:26.687Z,23.50
2018-08-22T19:40:07.593Z,23.50
2018-08-22T19:42:38.088Z,23.50
2018-08-22T19:45:07.598Z,23.60
2018-08-22T19:47:37.547Z,23.70
2018-08-22T19:50:06.570Z,23.70
2018-08-22T19:52:35.197Z,23.80
2018-08-22T19:55:14.584Z,23.80
2018-08-22T19:58:05.214Z,23.80
2018-08-22T20:00:34.655Z,23.80
2018-08-22T20:03:03.009Z,23.70
2018-08-22T20:05:45.971Z,23.60
2018-08-22T20:08:15.236Z,23.60
2018-08-22T20:10:43.603Z,22.80
2018-08-22T20:13:12.558Z,22.10
2018-08-22T20:15:42.180Z,21.80
2018-08-22T20:18:10.699Z,21.90
2018-08-22T20:20:39.180Z,22.00
2018-08-22T20:23:07.513Z,22.00
2018-08-22T20:25:35.854Z,22.10
2018-08-22T20:28:04.274Z,22.30
2018-08-22T20:30:33.078Z,22.60
2018-08-22T20:33:07.084Z,22.70
2018-08-22T20:35:39.633Z,22.80
2018-08-22T20:38:09.153Z,22.80
2018-08-22T20:40:37.493Z,22.70
2018-08-22T20:43:06.504Z,22.60
2018-08-22T20:45:37.005Z,22.50
2018-08-22T20:48:07.994Z,22.30
2018-08-22T20:50:37.958Z,22.20
2018-08-22T20:53:08.868Z,22.20
2018-08-22T20:55:37.272Z,22.20
2018-08-22T20:58:05.827Z,22.10
2018-08-22T21:00:43.055Z,21.90
2018-08-22T21:03:11.465Z,21.80
2018-08-22T21:05:40.332Z,21.90
2018-08-22T21:08:08.920Z,21.90
2018-08-22T21:10:37.223Z,21.90
2018-08-22T21:13:11.143Z,21.80
2018-08-22T21:15:39.842Z,21.70
2018-08-22T21:18:08.718Z,21.60
2018-08-22T21:20:37.075Z,21.60
2018-08-22T21:23:06.681Z,21.80
2018-08-22T21:25:35.053Z,21.80
2018-08-22T21:28:03.864Z,21.70
2018-08-22T21:30:32.261Z,21.60
2018-08-22T21:33:00.614Z,21.50
2018-08-22T21:35:28.926Z,21.50
2018-08-22T21:38:04.071Z,21.50
2018-08-22T21:40:33.439Z,21.60
2018-08-22T21:43:01.798Z,21.60
2018-08-22T21:45:30.125Z,21.50
2018-08-22T21:48:12.138Z,21.50
2018-08-22T21:50:40.577Z,21.50
2018-08-22T21:53:08.940Z,21.50
2018-08-22T21:55:39.293Z,21.40
2018-08-22T21:58:08.432Z,21.40
2018-08-22T22:00:36.922Z,21.30
2018-08-22T22:03:05.528Z,21.20
2018-08-22T22:05:41.504Z,21.20
2018-08-22T22:08:09.880Z,20.90
2018-08-22T22:10:38.216Z,21.00
2018-08-22T22:13:06.906Z,20.90
2018-08-22T22:15:40.591Z,20.80
2018-08-22T22:18:09.017Z,20.80
2018-08-22T22:20:37.415Z,20.80
2018-08-22T22:23:05.767Z,20.80
2018-08-22T22:25:34.077Z,20.80
2018-08-22T22:28:02.405Z,20.80
2018-08-22T22:30:30.789Z,20.80
2018-08-22T22:33:00.265Z,20.90
2018-08-22T22:35:33.949Z,20.80
2018-08-22T22:38:07.877Z,20.80
2018-08-22T22:40:36.460Z,20.70
2018-08-22T22:43:07.686Z,20.50
2018-08-22T22:45:36.227Z,20.40
2018-08-22T22:48:04.901Z,20.30
2018-08-22T22:50:33.224Z,20.30
2018-08-22T22:53:02.888Z,20.40
2018-08-22T22:55:31.270Z,20.40
2018-08-22T22:57:59.635Z,20.50
2018-08-22T23:00:29.821Z,20.50
2018-08-22T23:03:03.552Z,20.50
2018-08-22T23:05:32.089Z,20.60
2018-08-22T23:08:01.740Z,20.40
2018-08-22T23:10:30.129Z,20.30
2018-08-22T23:12:58.479Z,20.10
2018-08-22T23:15:28.723Z,20.00
2018-08-22T23:18:00.227Z,19.90
2018-08-22T23:20:44.160Z,19.70
2018-08-22T23:23:25.668Z,19.70
2018-08-22T23:25:54.776Z,19.80
2018-08-22T23:28:23.097Z,19.90
2018-08-22T23:30:51.940Z,20.00
2018-08-22T23:33:20.317Z,20.20
2018-08-22T23:35:48.641Z,20.30
2018-08-22T23:38:22.404Z,20.30
2018-08-22T23:40:50.797Z,20.20
2018-08-22T23:43:19.120Z,20.10
2018-08-22T23:45:57.404Z,20.10
2018-08-22T23:48:31.080Z,20.10
2018-08-22T23:51:00.832Z,20.00
2018-08-22T23:53:34.599Z,19.90
2018-08-22T23:56:13.440Z,19.80
2018-08-22T23:58:42.984Z,19.80
